createdAt,value
2019-03-27T00:01:15.400Z,39.03
2019-03-27T00:03:46.734Z,53.20
2019-03-27T00:06:17.901Z,52.00
2019-03-27T00:08:49.019Z,53.13
2019-03-27T00:11:20.159Z,52.40
2019-03-27T00:13:51.539Z,55.98
2019-03-27T00:16:23.007Z,63.78
2019-03-27T00:18:54.190Z,61.50
2019-03-27T00:21:25.451Z,49.38
2019-03-27T00:23:56.590Z,47.15
2019-03-27T00:26:27.787Z,49.55
2019-03-27T00:28:58.891Z,44.33
2019-03-27T00:31:30.174Z,37.98
2019-03-27T00:34:01.337Z,36.00
2019-03-27T00:36:32.902Z,35.95
2019-03-27T00:39:04.878Z,35.15
2019-03-27T00:41:36.018Z,35.40
2019-03-27T00:44:08.382Z,36.20
2019-03-27T00:46:39.524Z,34.38
2019-03-27T00:49:10.633Z,32.67
2019-03-27T00:51:41.772Z,33.80
2019-03-27T00:54:12.903Z,33.23
2019-03-27T00:56:44.079Z,34.05
2019-03-27T00:59:15.197Z,35.20
2019-03-27T01:01:46.542Z,33.18
2019-03-27T01:04:17.778Z,31.82
2019-03-27T01:06:51.080Z,33.13
2019-03-27T01:09:22.639Z,32.98
2019-03-27T01:11:53.913Z,32.58
2019-03-27T01:14:25.032Z,33.58
2019-03-27T01:16:56.166Z,36.23
2019-03-27T01:19:27.535Z,36.68
2019-03-27T01:21:58.546Z,35.73
2019-03-27T01:24:29.741Z,36.35
2019-03-27T01:27:00.820Z,35.63
2019-03-27T01:29:31.981Z,32.80
2019-03-27T01:32:03.014Z,35.90
2019-03-27T01:34:34.090Z,34.43
2019-03-27T01:37:05.198Z,33.53
2019-03-27T01:39:37.471Z,33.53
2019-03-27T01:42:08.540Z,33.55
2019-03-27T01:44:39.867Z,33.38
2019-03-27T01:47:10.929Z,33.65
2019-03-27T01:49:41.977Z,34.58
2019-03-27T01:52:13.194Z,33.42
2019-03-27T01:54:44.230Z,32.53
2019-03-27T01:57:15.228Z,34.80
2019-03-27T01:59:46.436Z,34.18
2019-03-27T02:02:17.450Z,35.30
2019-03-27T02:04:48.533Z,36.42
2019-03-27T02:07:19.604Z,38.10
2019-03-27T02:09:50.710Z,40.05
2019-03-27T02:12:21.781Z,42.83
2019-03-27T02:14:52.840Z,42.45
2019-03-27T02:17:23.973Z,41.15
2019-03-27T02:19:55.161Z,42.67
2019-03-27T02:22:26.307Z,43.40
2019-03-27T02:24:57.420Z,47.15
2019-03-27T02:27:28.528Z,42.27
2019-03-27T02:29:59.697Z,48.42
2019-03-27T02:32:30.930Z,50.52
2019-03-27T02:35:02.112Z,56.60
2019-03-27T02:37:33.203Z,58.45
2019-03-27T02:40:06.360Z,56.13
2019-03-27T02:42:37.380Z,58.13
2019-03-27T02:45:08.712Z,58.63
2019-03-27T02:47:39.780Z,54.13
2019-03-27T02:50:10.929Z,57.00
2019-03-27T02:52:42.199Z,58.08
2019-03-27T02:55:13.381Z,61.25
2019-03-27T02:57:44.759Z,60.05
2019-03-27T03:00:16.200Z,62.40
2019-03-27T03:02:47.370Z,63.68
2019-03-27T03:05:18.582Z,62.13
2019-03-27T03:07:49.780Z,60.15
2019-03-27T03:10:21.093Z,65.70
2019-03-27T03:12:52.324Z,62.55
2019-03-27T03:15:23.802Z,61.35
2019-03-27T03:17:54.970Z,59.90
2019-03-27T03:20:26.157Z,62.48
2019-03-27T03:22:57.536Z,59.63
2019-03-27T03:25:28.573Z,60.05
2019-03-27T03:27:59.718Z,61.15
2019-03-27T03:30:30.939Z,59.18
2019-03-27T03:33:01.948Z,57.20
2019-03-27T03:35:33.146Z,56.25
2019-03-27T03:38:04.151Z,54.58
2019-03-27T03:40:35.350Z,52.08
2019-03-27T03:43:07.018Z,54.80
2019-03-27T03:45:38.423Z,54.23
2019-03-27T03:48:09.603Z,53.78
2019-03-27T03:50:42.324Z,54.10
2019-03-27T03:53:13.989Z,51.98
2019-03-27T03:55:45.379Z,47.62
2019-03-27T03:58:16.923Z,46.60
2019-03-27T04:00:48.144Z,47.15
2019-03-27T04:03:19.188Z,49.00
2019-03-27T04:05:50.415Z,48.42
2019-03-27T04:08:21.853Z,42.23
2019-03-27T04:10:53.961Z,36.75
2019-03-27T04:13:25.020Z,28.90
2019-03-27T04:15:56.140Z,32.67
2019-03-27T04:18:27.268Z,25.65
2019-03-27T04:20:58.306Z,26.27
2019-03-27T04:23:29.426Z,26.05
2019-03-27T04:26:09.542Z,27.17
2019-03-27T04:28:33.526Z,28.73
2019-03-27T04:31:04.901Z,32.48
2019-03-27T04:33:36.044Z,35.23
2019-03-27T04:36:07.136Z,36.73
2019-03-27T04:38:38.377Z,37.53
2019-03-27T04:41:09.519Z,38.05
2019-03-27T04:43:40.795Z,37.85
2019-03-27T04:46:11.978Z,42.30
2019-03-27T04:48:43.295Z,41.48
2019-03-27T04:51:14.383Z,40.12
2019-03-27T04:53:45.410Z,40.05
2019-03-27T04:56:16.611Z,41.37
2019-03-27T04:58:47.658Z,40.85
2019-03-27T05:01:18.701Z,42.78
2019-03-27T05:03:49.999Z,44.55
2019-03-27T05:06:21.115Z,45.58
2019-03-27T05:08:52.392Z,46.77
2019-03-27T05:11:25.018Z,48.60
2019-03-27T05:13:56.419Z,47.58
2019-03-27T05:16:27.686Z,47.23
2019-03-27T05:18:58.808Z,49.25
2019-03-27T05:21:29.955Z,51.37
2019-03-27T05:24:01.082Z,51.50
2019-03-27T05:26:32.413Z,56.13
2019-03-27T05:29:04.057Z,64.90
2019-03-27T05:31:36.012Z,74.10
2019-03-27T05:34:08.428Z,70.10
2019-03-27T05:36:39.571Z,69.40
2019-03-27T05:39:10.645Z,67.78
2019-03-27T05:41:41.754Z,64.77
2019-03-27T05:44:12.924Z,59.33
2019-03-27T05:46:44.159Z,52.85
2019-03-27T05:49:15.267Z,53.83
2019-03-27T05:51:46.539Z,52.80
2019-03-27T05:54:22.067Z,51.83
2019-03-27T05:57:05.632Z,50.35
2019-03-27T05:59:36.791Z,49.50
2019-03-27T06:02:07.949Z,48.20
2019-03-27T06:04:38.968Z,44.33
2019-03-27T06:07:10.709Z,38.25
2019-03-27T06:09:42.298Z,37.50
2019-03-27T06:12:13.669Z,32.60
2019-03-27T06:14:45.020Z,29.98
2019-03-27T06:17:16.184Z,29.18
2019-03-27T06:19:47.364Z,26.20
2019-03-27T06:22:19.806Z,24.32
2019-03-27T06:24:50.921Z,25.55
2019-03-27T06:27:23.289Z,23.85
2019-03-27T06:29:54.573Z,22.27
2019-03-27T06:32:25.922Z,26.10
2019-03-27T06:34:57.060Z,20.02
2019-03-27T06:37:28.289Z,15.15
2019-03-27T06:39:59.432Z,12.10
2019-03-27T06:42:30.671Z,12.15
2019-03-27T06:45:02.163Z,9.13
2019-03-27T06:47:33.375Z,11.75
2019-03-27T06:50:06.133Z,12.50
2019-03-27T06:52:37.373Z,14.55
2019-03-27T06:55:08.435Z,14.15
2019-03-27T06:57:40.659Z,16.10
2019-03-27T07:00:12.029Z,17.37
2019-03-27T07:02:44.404Z,18.75
2019-03-27T07:05:15.654Z,17.45
2019-03-27T07:07:46.934Z,18.95
2019-03-27T07:10:18.243Z,16.80
2019-03-27T07:12:51.245Z,11.25
2019-03-27T07:15:22.332Z,8.35
2019-03-27T07:17:53.617Z,8.70
2019-03-27T07:20:24.727Z,7.65
2019-03-27T07:22:55.659Z,8.03
2019-03-27T07:25:26.964Z,6.33
2019-03-27T07:27:58.511Z,7.65
2019-03-27T07:30:29.676Z,7.17
2019-03-27T07:33:00.877Z,4.28
2019-03-27T07:35:31.916Z,5.10
2019-03-27T07:38:03.033Z,4.70
2019-03-27T07:40:34.135Z,4.37
2019-03-27T07:43:05.389Z,4.70
2019-03-27T07:45:36.588Z,7.55
2019-03-27T07:48:07.685Z,5.22
2019-03-27T07:50:38.912Z,5.80
2019-03-27T07:53:09.951Z,5.20
2019-03-27T07:55:41.090Z,5.90
2019-03-27T07:58:12.630Z,5.72
2019-03-27T08:00:44.024Z,5.87
2019-03-27T08:03:28.938Z,4.80
2019-03-27T08:06:05.734Z,4.60
2019-03-27T08:08:37.146Z,4.70
2019-03-27T08:11:09.927Z,4.78
2019-03-27T08:13:40.990Z,5.62
2019-03-27T08:16:11.994Z,5.15
2019-03-27T08:18:43.060Z,4.72
2019-03-27T08:21:14.348Z,5.72
2019-03-27T08:23:45.607Z,5.55
2019-03-27T08:26:16.980Z,5.03
2019-03-27T08:28:48.487Z,5.70
2019-03-27T08:31:20.082Z,5.20
2019-03-27T08:33:51.266Z,5.70
2019-03-27T08:36:22.459Z,7.00
2019-03-27T08:38:53.770Z,8.38
2019-03-27T08:41:25.119Z,7.60
2019-03-27T08:43:57.905Z,7.58
2019-03-27T08:46:31.719Z,6.00
2019-03-27T08:49:03.395Z,5.60
2019-03-27T08:51:34.631Z,4.90
2019-03-27T08:54:06.252Z,4.90
2019-03-27T08:56:37.895Z,5.30
2019-03-27T08:59:09.576Z,5.10
2019-03-27T09:01:40.719Z,5.60
2019-03-27T09:04:12.043Z,5.95
2019-03-27T09:06:43.161Z,6.20
2019-03-27T09:09:14.233Z,6.65
2019-03-27T09:11:45.232Z,6.30
2019-03-27T09:14:16.353Z,10.60
2019-03-27T09:16:47.456Z,5.20
2019-03-27T09:19:18.531Z,5.53
2019-03-27T09:21:49.659Z,6.30
2019-03-27T09:24:21.001Z,5.62
2019-03-27T09:26:55.341Z,5.58
2019-03-27T09:29:26.439Z,5.17
2019-03-27T09:31:57.523Z,5.30
2019-03-27T09:34:28.854Z,6.53
2019-03-27T09:36:59.904Z,6.35
2019-03-27T09:39:31.159Z,7.00
2019-03-27T09:42:04.161Z,7.05
2019-03-27T09:44:36.257Z,6.60
2019-03-27T09:47:07.648Z,7.40
2019-03-27T09:49:49.604Z,6.97
2019-03-27T09:52:11.956Z,7.45
2019-03-27T09:54:43.285Z,8.80
2019-03-27T09:57:14.575Z,9.25
2019-03-27T09:59:47.107Z,9.03
2019-03-27T10:02:18.088Z,6.67
2019-03-27T10:04:49.132Z,8.30
2019-03-27T10:07:20.089Z,8.05
2019-03-27T10:09:51.115Z,8.40
2019-03-27T10:12:22.219Z,9.20
2019-03-27T10:14:53.163Z,7.60
2019-03-27T10:17:24.257Z,8.25
2019-03-27T10:20:03.347Z,7.72
2019-03-27T10:22:28.312Z,7.78
2019-03-27T10:24:59.383Z,7.40
2019-03-27T10:27:30.293Z,6.25
2019-03-27T10:30:01.274Z,6.87
2019-03-27T10:32:32.679Z,7.08
2019-03-27T10:35:04.189Z,7.20
2019-03-27T10:37:35.161Z,6.80
2019-03-27T10:40:07.854Z,7.40
2019-03-27T10:42:38.858Z,8.20
2019-03-27T10:45:10.975Z,9.18
2019-03-27T10:47:42.092Z,9.35
2019-03-27T10:50:17.802Z,9.05
2019-03-27T10:52:46.394Z,8.73
2019-03-27T10:55:18.648Z,9.30
2019-03-27T10:57:49.653Z,8.65
2019-03-27T11:00:20.768Z,8.48
2019-03-27T11:02:52.139Z,9.25
2019-03-27T11:05:26.485Z,7.15
2019-03-27T11:07:59.468Z,8.00
2019-03-27T11:10:30.700Z,8.48
2019-03-27T11:13:01.716Z,8.28
2019-03-27T11:15:32.751Z,9.10
2019-03-27T11:18:03.655Z,10.10
2019-03-27T11:20:34.968Z,8.85
2019-03-27T11:23:05.976Z,9.73
2019-03-27T11:25:36.919Z,10.18
2019-03-27T11:28:08.290Z,9.65
2019-03-27T11:30:39.470Z,10.20
2019-03-27T11:33:10.712Z,9.93
2019-03-27T11:35:41.831Z,9.80
2019-03-27T11:38:12.878Z,10.05
2019-03-27T11:40:44.452Z,8.73
2019-03-27T11:43:15.441Z,11.00
2019-03-27T11:45:48.736Z,12.30
2019-03-27T11:48:19.533Z,10.03
2019-03-27T11:50:50.802Z,12.03
2019-03-27T11:53:21.880Z,9.85
2019-03-27T11:55:53.062Z,10.58
2019-03-27T11:58:24.397Z,10.53
2019-03-27T12:00:55.684Z,9.55
2019-03-27T12:03:26.637Z,9.18
2019-03-27T12:05:57.599Z,10.63
2019-03-27T12:08:28.655Z,12.07
2019-03-27T12:10:59.770Z,14.68
2019-03-27T12:13:30.824Z,11.68
2019-03-27T12:16:01.982Z,12.43
2019-03-27T12:18:33.310Z,12.95
2019-03-27T12:21:04.472Z,13.93
2019-03-27T12:23:35.468Z,14.93
2019-03-27T12:26:06.653Z,14.58
2019-03-27T12:28:37.921Z,14.60
2019-03-27T12:31:09.136Z,15.53
2019-03-27T12:33:40.183Z,14.90
2019-03-27T12:36:11.322Z,16.75
2019-03-27T12:38:42.420Z,13.88
2019-03-27T12:41:13.727Z,65.90
2019-03-27T12:43:44.886Z,20.88
2019-03-27T12:46:16.174Z,21.37
2019-03-27T12:48:47.285Z,19.55
2019-03-27T12:51:18.573Z,18.65
2019-03-27T12:53:49.879Z,20.75
2019-03-27T12:56:21.054Z,18.15
2019-03-27T12:58:52.144Z,18.67
2019-03-27T13:01:23.396Z,18.02
2019-03-27T13:03:54.679Z,20.02
2019-03-27T13:06:26.007Z,20.37
2019-03-27T13:08:57.210Z,19.23
2019-03-27T13:11:28.394Z,18.42
2019-03-27T13:13:59.467Z,19.75
2019-03-27T13:16:30.589Z,19.27
2019-03-27T13:19:01.665Z,17.32
2019-03-27T13:21:32.909Z,15.00
2019-03-27T13:24:03.970Z,16.90
2019-03-27T13:26:36.633Z,17.02
2019-03-27T13:29:07.775Z,15.70
2019-03-27T13:31:39.909Z,17.00
2019-03-27T13:34:11.101Z,17.37
2019-03-27T13:36:44.010Z,17.77
2019-03-27T13:39:15.003Z,18.62
2019-03-27T13:41:46.110Z,18.10
2019-03-27T13:44:17.205Z,23.30
2019-03-27T13:46:48.532Z,19.70
2019-03-27T13:49:19.606Z,18.52
2019-03-27T13:51:51.702Z,19.23
2019-03-27T13:54:22.820Z,18.82
2019-03-27T13:56:54.126Z,18.82
2019-03-27T13:59:25.093Z,20.10
2019-03-27T14:01:56.469Z,19.62
2019-03-27T14:04:27.643Z,17.25
2019-03-27T14:06:58.800Z,18.77
2019-03-27T14:09:32.189Z,17.23
2019-03-27T14:12:03.343Z,18.23
2019-03-27T14:14:34.554Z,18.55
2019-03-27T14:17:05.710Z,21.97
2019-03-27T14:19:36.837Z,16.70
2019-03-27T14:22:07.970Z,18.25
2019-03-27T14:24:39.148Z,20.37
2019-03-27T14:27:10.329Z,20.08
2019-03-27T14:29:41.431Z,21.85
2019-03-27T14:32:12.679Z,21.10
2019-03-27T14:34:44.329Z,23.05
2019-03-27T14:37:15.538Z,24.25
2019-03-27T14:39:46.914Z,26.05
2019-03-27T14:42:18.058Z,24.67
2019-03-27T14:44:49.274Z,28.10
2019-03-27T14:47:20.502Z,24.40
2019-03-27T14:49:51.660Z,23.75
2019-03-27T14:52:23.044Z,23.05
2019-03-27T14:54:54.175Z,22.65
2019-03-27T14:57:25.508Z,26.90
2019-03-27T14:59:56.600Z,24.43
2019-03-27T15:02:27.926Z,27.32
2019-03-27T15:04:59.098Z,32.30
2019-03-27T15:07:30.369Z,36.73
2019-03-27T15:10:01.565Z,38.92
2019-03-27T15:12:34.726Z,39.05
2019-03-27T15:15:08.202Z,42.88
2019-03-27T15:17:40.527Z,41.28
2019-03-27T15:20:11.676Z,42.08
2019-03-27T15:22:42.898Z,44.25
2019-03-27T15:25:14.437Z,50.73
2019-03-27T15:27:46.950Z,73.57
2019-03-27T15:30:19.803Z,80.03
2019-03-27T15:32:50.999Z,84.62
2019-03-27T15:35:22.256Z,95.85
2019-03-27T15:37:53.539Z,87.10
2019-03-27T15:40:40.740Z,80.07
2019-03-27T15:43:12.093Z,86.20
2019-03-27T15:45:43.251Z,87.20
2019-03-27T15:48:16.224Z,84.87
2019-03-27T15:50:56.833Z,80.25
2019-03-27T15:53:20.879Z,69.47
2019-03-27T15:55:52.199Z,62.80
2019-03-27T15:58:23.438Z,66.53
2019-03-27T16:00:54.793Z,68.40
2019-03-27T16:03:26.046Z,59.85
2019-03-27T16:05:57.685Z,59.50
2019-03-27T16:08:29.043Z,49.65
2019-03-27T16:11:00.250Z,52.75
2019-03-27T16:13:32.574Z,59.53
2019-03-27T16:16:04.036Z,55.52
2019-03-27T16:18:36.758Z,56.33
2019-03-27T16:21:08.076Z,39.63
2019-03-27T16:23:43.903Z,39.98
2019-03-27T16:26:15.840Z,37.98
2019-03-27T16:28:48.227Z,29.72
2019-03-27T16:31:19.430Z,29.85
2019-03-27T16:33:55.157Z,27.93
2019-03-27T16:36:42.610Z,22.75
2019-03-27T16:39:13.801Z,21.82
2019-03-27T16:41:45.025Z,24.27
2019-03-27T16:44:16.474Z,26.20
2019-03-27T16:46:47.732Z,41.70
2019-03-27T16:49:18.991Z,43.02
2019-03-27T16:51:50.685Z,46.83
2019-03-27T16:54:22.161Z,52.30
2019-03-27T16:56:54.949Z,34.92
2019-03-27T16:59:26.187Z,34.73
2019-03-27T17:01:57.404Z,24.95
2019-03-27T17:04:28.813Z,27.67
2019-03-27T17:07:01.736Z,16.30
2019-03-27T17:09:33.015Z,16.05
2019-03-27T17:12:04.318Z,17.60
2019-03-27T17:14:35.593Z,16.73
2019-03-27T17:17:06.890Z,15.40
2019-03-27T17:19:38.175Z,17.42
2019-03-27T17:22:19.412Z,19.15
2019-03-27T17:24:42.501Z,31.90
2019-03-27T17:27:13.961Z,34.35
2019-03-27T17:29:45.273Z,35.63
2019-03-27T17:32:16.586Z,28.02
2019-03-27T17:34:47.812Z,30.90
2019-03-27T17:37:19.035Z,34.98
2019-03-27T17:39:50.281Z,49.73
2019-03-27T17:42:21.416Z,51.33
2019-03-27T17:45:00.687Z,39.95
2019-03-27T17:51:12.117Z,40.67
2019-03-27T17:53:45.346Z,40.33
2019-03-27T17:56:16.726Z,36.98
2019-03-27T17:58:47.906Z,21.68
2019-03-27T18:01:19.192Z,20.25
2019-03-27T18:03:50.352Z,20.62
2019-03-27T18:06:21.626Z,20.75
2019-03-27T18:08:54.298Z,16.57
2019-03-27T18:11:25.613Z,15.88
2019-03-27T18:13:58.796Z,18.23
2019-03-27T18:16:29.964Z,16.30
2019-03-27T18:19:01.138Z,18.95
2019-03-27T18:21:33.961Z,20.62
2019-03-27T18:24:05.064Z,23.42
2019-03-27T18:26:36.371Z,26.85
2019-03-27T18:29:07.588Z,26.90
2019-03-27T18:31:38.702Z,31.35
2019-03-27T18:34:09.910Z,40.08
2019-03-27T18:36:41.015Z,43.35
2019-03-27T18:39:13.014Z,47.50
2019-03-27T18:41:51.229Z,67.22
2019-03-27T18:44:45.722Z,74.60
2019-03-27T18:47:20.087Z,77.90
2019-03-27T18:49:53.566Z,78.02
2019-03-27T18:52:27.076Z,92.33
2019-03-27T18:54:58.424Z,88.72
2019-03-27T18:57:31.613Z,84.45
2019-03-27T19:00:26.252Z,82.20
2019-03-27T19:03:20.552Z,85.12
2019-03-27T19:05:51.864Z,84.05
2019-03-27T19:08:23.094Z,91.25
2019-03-27T19:10:54.447Z,87.67
2019-03-27T19:13:28.058Z,71.17
2019-03-27T19:15:59.274Z,63.13
2019-03-27T19:18:31.459Z,58.23
2019-03-27T19:21:02.698Z,52.20
2019-03-27T19:23:33.851Z,55.50
2019-03-27T19:26:05.558Z,51.50
2019-03-27T19:28:36.849Z,39.30
2019-03-27T19:31:07.903Z,30.65
2019-03-27T19:33:41.442Z,25.20
2019-03-27T19:36:12.480Z,22.30
2019-03-27T19:38:43.626Z,25.08
2019-03-27T19:41:17.624Z,23.15
2019-03-27T19:43:52.610Z,23.92
2019-03-27T19:46:23.883Z,24.20
2019-03-27T19:48:55.231Z,25.23
2019-03-27T19:51:30.896Z,25.68
2019-03-27T19:54:03.994Z,27.60
2019-03-27T19:56:35.443Z,32.48
2019-03-27T19:59:06.563Z,30.25
2019-03-27T20:01:39.388Z,30.55
2019-03-27T20:04:10.509Z,30.72
2019-03-27T20:06:41.727Z,28.38
2019-03-27T20:09:12.952Z,29.72
2019-03-27T20:11:44.303Z,31.77
2019-03-27T20:14:15.672Z,30.32
2019-03-27T20:16:52.295Z,32.15
2019-03-27T20:19:25.440Z,33.90
2019-03-27T20:21:57.236Z,32.73
2019-03-27T20:24:40.516Z,33.42
2019-03-27T20:27:18.051Z,34.85
2019-03-27T20:29:50.753Z,36.60
2019-03-27T20:32:22.308Z,35.40
2019-03-27T20:34:53.576Z,37.10
2019-03-27T20:37:24.823Z,35.88
2019-03-27T20:39:57.609Z,35.10
2019-03-27T20:42:28.764Z,33.48
2019-03-27T20:45:02.653Z,33.08
2019-03-27T20:47:36.623Z,31.68
2019-03-27T20:50:13.742Z,31.00
2019-03-27T20:52:47.994Z,32.78
2019-03-27T20:55:30.119Z,30.65
2019-03-27T20:57:54.676Z,32.05
2019-03-27T21:00:26.064Z,33.55
2019-03-27T21:02:58.179Z,35.58
2019-03-27T21:05:29.529Z,39.20
2019-03-27T21:08:00.836Z,40.48
2019-03-27T21:10:34.845Z,39.45
2019-03-27T21:13:10.152Z,34.40
2019-03-27T21:15:41.304Z,35.92
2019-03-27T21:18:15.456Z,34.00
2019-03-27T21:20:49.976Z,34.78
2019-03-27T21:23:22.687Z,35.48
2019-03-27T21:25:53.924Z,33.55
2019-03-27T21:28:26.094Z,29.98
2019-03-27T21:30:57.210Z,30.17
2019-03-27T21:33:30.008Z,29.18
2019-03-27T21:36:01.537Z,25.85
2019-03-27T21:38:34.044Z,24.18
2019-03-27T21:41:05.134Z,25.57
2019-03-27T21:43:36.383Z,22.05
2019-03-27T21:46:07.492Z,21.37
2019-03-27T21:48:38.755Z,23.02
2019-03-27T21:51:10.384Z,19.35
2019-03-27T21:53:42.294Z,20.48
2019-03-27T21:56:13.649Z,20.43
2019-03-27T21:58:44.884Z,19.60
2019-03-27T22:01:16.085Z,21.10
2019-03-27T22:03:47.163Z,21.12
2019-03-27T22:06:18.359Z,22.02
2019-03-27T22:08:49.635Z,22.35
2019-03-27T22:11:21.007Z,23.20
2019-03-27T22:13:52.398Z,25.17
2019-03-27T22:16:23.638Z,22.77
2019-03-27T22:18:54.701Z,23.47
2019-03-27T22:21:27.027Z,24.50
2019-03-27T22:23:58.114Z,24.98
2019-03-27T22:26:33.858Z,26.90
2019-03-27T22:29:05.298Z,26.05
2019-03-27T22:31:36.666Z,26.37
2019-03-27T22:34:07.907Z,27.75
2019-03-27T22:36:39.302Z,28.47
2019-03-27T22:39:10.522Z,28.52
2019-03-27T22:41:41.738Z,31.97
2019-03-27T22:44:12.877Z,30.68
2019-03-27T22:46:45.214Z,31.85
2019-03-27T22:49:19.171Z,35.90
2019-03-27T22:51:50.414Z,38.15
2019-03-27T22:54:21.515Z,37.88
2019-03-27T22:56:52.996Z,38.05
2019-03-27T22:59:23.969Z,38.58
2019-03-27T23:01:55.120Z,36.55
2019-03-27T23:04:26.255Z,38.60
2019-03-27T23:06:57.407Z,40.33
2019-03-27T23:09:28.521Z,42.00
2019-03-27T23:11:59.797Z,39.05
2019-03-27T23:14:31.080Z,43.92
2019-03-27T23:17:02.229Z,45.48
2019-03-27T23:19:33.367Z,42.80
2019-03-27T23:22:04.516Z,40.00
2019-03-27T23:24:35.612Z,45.78
2019-03-27T23:27:06.764Z,40.17
2019-03-27T23:29:39.124Z,39.35
2019-03-27T23:32:10.224Z,37.60
2019-03-27T23:34:41.419Z,32.93
2019-03-27T23:37:12.590Z,31.23
2019-03-27T23:39:43.899Z,34.05
2019-03-27T23:42:16.270Z,37.23
2019-03-27T23:44:47.632Z,40.58
2019-03-27T23:47:18.752Z,40.10
2019-03-27T23:49:49.987Z,39.60
2019-03-27T23:52:21.038Z,41.70
2019-03-27T23:54:52.222Z,42.48
2019-03-27T23:57:24.167Z,43.68
2019-03-27T23:59:55.381Z,42.10
